createdAt,value
2022-09-10T00:01:35.875Z,97568.83
2022-09-10T00:04:06.844Z,97565.69
2022-09-10T00:06:34.926Z,97561.95
2022-09-10T00:09:01.696Z,97560.90
2022-09-10T00:11:31.625Z,97558.45
2022-09-10T00:14:00.872Z,97554.86
2022-09-10T00:16:28.922Z,97555.52
2022-09-10T00:18:59.889Z,97554.85
2022-09-10T00:21:27.359Z,97551.83
2022-09-10T00:23:53.874Z,97548.71
2022-09-10T00:26:23.485Z,97548.92
2022-09-10T00:28:53.508Z,97552.20
2022-09-10T00:31:22.118Z,97552.85
2022-09-10T00:33:50.326Z,97552.81
2022-09-10T00:36:23.712Z,97551.91
2022-09-10T00:38:51.736Z,97550.77
2022-09-10T00:41:20.331Z,97549.08
2022-09-10T00:43:55.144Z,97546.67
2022-09-10T00:46:42.896Z,97546.33
2022-09-10T00:49:20.704Z,97544.35
2022-09-10T00:51:49.710Z,97539.73
2022-09-10T00:54:19.729Z,97534.43
2022-09-10T00:56:49.052Z,97533.52
2022-09-10T00:59:20.722Z,97525.70
2022-09-10T01:01:48.765Z,97516.33
2022-09-10T01:04:15.505Z,97515.98
2022-09-10T01:06:45.925Z,97522.22
2022-09-10T01:09:13.841Z,97520.45
2022-09-10T01:12:04.274Z,97519.30
2022-09-10T01:14:53.909Z,97514.75
2022-09-10T01:17:20.401Z,97506.40
2022-09-10T01:19:56.168Z,97504.62
2022-09-10T01:22:49.042Z,97511.25
2022-09-10T01:25:40.168Z,97517.42
2022-09-10T01:28:17.273Z,97511.90
2022-09-10T01:30:50.953Z,97508.41
2022-09-10T01:33:42.505Z,97500.27
2022-09-10T01:36:18.701Z,97497.95
2022-09-10T01:38:46.290Z,97501.19
2022-09-10T01:41:13.184Z,97501.27
2022-09-10T01:43:42.407Z,97500.95
2022-09-10T01:46:24.787Z,97499.15
2022-09-10T01:49:03.399Z,97500.97
2022-09-10T01:51:46.120Z,97498.57
2022-09-10T01:54:30.801Z,97495.98
2022-09-10T01:57:14.481Z,97492.98
2022-09-10T01:59:53.097Z,97488.40
2022-09-10T02:02:51.644Z,97485.74
2022-09-10T02:05:22.921Z,97481.33
2022-09-10T02:08:04.777Z,97482.11
2022-09-10T02:10:31.931Z,97479.11
2022-09-10T02:12:59.136Z,97475.37
2022-09-10T02:15:42.868Z,97475.54
2022-09-10T02:18:22.891Z,97475.64
2022-09-10T02:20:52.486Z,97471.89
2022-09-10T02:23:24.253Z,97464.42
2022-09-10T02:25:50.989Z,97466.86
2022-09-10T02:28:17.991Z,97461.24
2022-09-10T02:30:47.738Z,97458.58
2022-09-10T02:33:18.112Z,97454.28
2022-09-10T02:35:47.047Z,97450.09
2022-09-10T02:38:13.822Z,97444.81
2022-09-10T02:40:42.629Z,97438.92
2022-09-10T02:43:09.645Z,97439.53
2022-09-10T02:45:38.515Z,97442.23
2022-09-10T02:48:05.098Z,97445.08
2022-09-10T02:50:35.521Z,97440.44
2022-09-10T02:53:02.624Z,97431.00
2022-09-10T02:55:30.762Z,97423.02
2022-09-10T02:57:57.877Z,97419.09
2022-09-10T03:00:24.599Z,97422.04
2022-09-10T03:02:51.418Z,97426.60
2022-09-10T03:05:18.174Z,97429.98
2022-09-10T03:07:44.936Z,97428.90
2022-09-10T03:10:11.612Z,97423.71
2022-09-10T03:12:38.746Z,97417.66
2022-09-10T03:15:06.426Z,97417.83
2022-09-10T03:17:33.273Z,97416.05
2022-09-10T03:19:59.901Z,97411.34
2022-09-10T03:22:26.671Z,97408.65
2022-09-10T03:24:54.509Z,97409.20
2022-09-10T03:27:22.244Z,97411.14
2022-09-10T03:29:49.036Z,97411.21
2022-09-10T03:32:15.795Z,97412.38
2022-09-10T03:34:43.678Z,97423.74
2022-09-10T03:37:10.239Z,97435.50
2022-09-10T03:39:36.915Z,97431.70
2022-09-10T03:42:04.610Z,97435.27
2022-09-10T03:44:32.904Z,97432.55
2022-09-10T03:47:00.380Z,97426.98
2022-09-10T03:49:27.936Z,97423.58
2022-09-10T03:51:55.333Z,97423.59
2022-09-10T03:54:23.225Z,97427.94
2022-09-10T03:56:50.982Z,97423.77
2022-09-10T03:59:18.093Z,97413.58
2022-09-10T04:01:45.192Z,97412.67
2022-09-10T04:04:12.273Z,97412.73
2022-09-10T04:06:40.001Z,97411.17
2022-09-10T04:09:06.620Z,97405.91
2022-09-10T04:11:33.226Z,97404.33
2022-09-10T04:14:00.351Z,97402.62
2022-09-10T04:16:27.956Z,97403.14
2022-09-10T04:18:55.150Z,97405.65
2022-09-10T04:21:22.695Z,97409.26
2022-09-10T04:23:56.552Z,97402.48
2022-09-10T04:26:24.805Z,97399.58
2022-09-10T04:28:52.921Z,97407.68
2022-09-10T04:31:19.967Z,97414.41
2022-09-10T04:33:46.953Z,97419.61
2022-09-10T04:36:15.164Z,97414.89
2022-09-10T04:38:43.515Z,97412.05
2022-09-10T04:41:14.918Z,97405.73
2022-09-10T04:43:43.147Z,97408.02
2022-09-10T04:46:10.117Z,97409.21
2022-09-10T04:48:39.424Z,97400.84
2022-09-10T04:51:16.092Z,97397.23
2022-09-10T04:53:45.928Z,97390.38
2022-09-10T04:56:12.847Z,97388.15
2022-09-10T04:58:40.741Z,97398.76
2022-09-10T05:01:08.229Z,97401.48
2022-09-10T05:03:35.563Z,97404.08
2022-09-10T05:06:04.384Z,97402.93
2022-09-10T05:08:31.778Z,97406.77
2022-09-10T05:11:02.290Z,97403.70
2022-09-10T05:13:32.525Z,97397.71
2022-09-10T05:16:00.523Z,97393.98
2022-09-10T05:18:27.333Z,97399.20
2022-09-10T05:20:54.175Z,97401.54
2022-09-10T05:23:21.295Z,97397.19
2022-09-10T05:25:48.187Z,97395.51
2022-09-10T05:28:15.880Z,97386.37
2022-09-10T05:30:49.513Z,97384.23
2022-09-10T05:33:21.490Z,97378.55
2022-09-10T05:35:52.003Z,97365.75
2022-09-10T05:38:19.972Z,97366.23
2022-09-10T05:40:47.671Z,97367.65
2022-09-10T05:43:14.810Z,97372.02
2022-09-10T05:45:43.578Z,97373.06
2022-09-10T05:48:10.287Z,97360.42
2022-09-10T05:50:38.013Z,97354.51
2022-09-10T05:53:04.965Z,97350.95
2022-09-10T05:55:32.736Z,97348.68
2022-09-10T05:58:00.719Z,97332.08
2022-09-10T06:00:27.544Z,97319.35
2022-09-10T06:02:59.983Z,97329.54
2022-09-10T06:05:31.561Z,97344.27
2022-09-10T06:07:59.292Z,97356.20
2022-09-10T06:10:26.081Z,97355.50
2022-09-10T06:12:52.786Z,97347.65
2022-09-10T06:15:20.641Z,97347.95
2022-09-10T06:17:49.122Z,97344.90
2022-09-10T06:20:19.745Z,97338.21
2022-09-10T06:22:46.878Z,97341.15
2022-09-10T06:25:13.840Z,97339.47
2022-09-10T06:27:41.022Z,97337.86
2022-09-10T06:30:08.321Z,97339.98
2022-09-10T06:32:38.641Z,97341.44
2022-09-10T06:35:05.918Z,97345.23
2022-09-10T06:37:33.960Z,97346.70
2022-09-10T06:40:03.335Z,97352.55
2022-09-10T06:42:31.573Z,97344.97
2022-09-10T06:45:13.362Z,97339.98
2022-09-10T06:50:58.717Z,97331.52
2022-09-10T06:53:33.401Z,97329.44
2022-09-10T06:56:03.013Z,97332.25
2022-09-10T06:58:36.392Z,97332.36
2022-09-10T07:01:22.194Z,97326.52
2022-09-10T07:03:58.412Z,97320.30
2022-09-10T07:06:29.102Z,97322.80
2022-09-10T07:09:04.445Z,97326.20
2022-09-10T07:11:40.694Z,97326.23
2022-09-10T07:14:13.252Z,97322.34
2022-09-10T07:16:44.971Z,97312.34
2022-09-10T07:19:14.463Z,97312.14
2022-09-10T07:21:44.244Z,97318.25
2022-09-10T07:24:13.885Z,97320.08
2022-09-10T07:26:47.273Z,97314.83
2022-09-10T07:29:13.841Z,97305.98
2022-09-10T07:31:41.098Z,97302.66
2022-09-10T07:34:12.175Z,97300.16
2022-09-10T07:36:38.750Z,97296.42
2022-09-10T07:39:05.406Z,97294.79
2022-09-10T07:41:35.430Z,97290.98
2022-09-10T07:44:04.780Z,97289.70
2022-09-10T07:46:37.423Z,97292.55
2022-09-10T07:49:08.824Z,97292.36
2022-09-10T07:51:35.854Z,97295.44
2022-09-10T07:54:02.801Z,97296.16
2022-09-10T07:56:37.383Z,97287.83
2022-09-10T07:59:06.586Z,97278.62
2022-09-10T08:01:41.962Z,97265.94
2022-09-10T08:04:09.260Z,97262.30
2022-09-10T08:06:37.186Z,97265.55
2022-09-10T08:09:06.643Z,97261.42
2022-09-10T08:11:34.514Z,97260.14
2022-09-10T08:14:04.182Z,97260.08
2022-09-10T08:16:32.507Z,97259.42
2022-09-10T08:19:04.885Z,97257.65
2022-09-10T08:21:31.996Z,97259.23
2022-09-10T08:24:02.105Z,97260.13
2022-09-10T08:26:32.980Z,97260.90
2022-09-10T08:29:02.236Z,97257.05
2022-09-10T08:31:29.092Z,97255.05
2022-09-10T08:34:01.653Z,97257.02
2022-09-10T08:36:28.918Z,97258.16
2022-09-10T08:39:00.728Z,97257.36
2022-09-10T08:41:39.178Z,97259.05
2022-09-10T08:44:12.978Z,97268.25
2022-09-10T08:46:48.761Z,97275.35
2022-09-10T08:49:29.606Z,97275.23
2022-09-10T08:52:26.606Z,97274.11
2022-09-10T08:55:15.104Z,97278.87
2022-09-10T08:57:48.350Z,97276.49
2022-09-10T09:00:20.798Z,97266.85
2022-09-10T09:03:12.098Z,97261.17
2022-09-10T09:05:48.519Z,97259.23
2022-09-10T09:08:21.214Z,97258.58
2022-09-10T09:10:55.943Z,97257.73
2022-09-10T09:13:22.533Z,97255.55
2022-09-10T09:15:58.829Z,97250.66
2022-09-10T09:18:47.587Z,97250.96
2022-09-10T09:21:27.128Z,97250.48
2022-09-10T09:24:12.786Z,97250.77
2022-09-10T09:26:49.372Z,97253.96
2022-09-10T09:29:25.089Z,97252.37
2022-09-10T09:31:59.972Z,97245.31
2022-09-10T09:34:35.770Z,97250.39
2022-09-10T09:37:11.906Z,97247.61
2022-09-10T09:40:06.048Z,97248.23
2022-09-10T09:42:58.702Z,97248.48
2022-09-10T09:45:42.698Z,97249.83
2022-09-10T09:48:15.329Z,97250.95
2022-09-10T09:50:45.974Z,97256.09
2022-09-10T09:53:19.870Z,97253.35
2022-09-10T09:55:51.455Z,97255.58
2022-09-10T09:58:21.167Z,97251.61
2022-09-10T10:01:02.968Z,97254.63
2022-09-10T10:03:42.053Z,97257.08
2022-09-10T10:06:11.665Z,97256.48
2022-09-10T10:08:57.072Z,97257.91
2022-09-10T10:11:41.592Z,97257.27
2022-09-10T10:14:37.593Z,97260.50
2022-09-10T10:17:31.900Z,97254.55
2022-09-10T10:20:17.058Z,97254.14
2022-09-10T10:22:45.919Z,97254.59
2022-09-10T10:25:36.000Z,97250.89
2022-09-10T10:28:03.075Z,97247.45
2022-09-10T10:30:31.492Z,97248.00
2022-09-10T10:33:04.588Z,97251.34
2022-09-10T10:35:43.646Z,97255.44
2022-09-10T10:38:31.281Z,97254.35
2022-09-10T10:41:30.396Z,97254.55
2022-09-10T10:45:17.209Z,97260.09
2022-09-10T10:48:50.798Z,97255.36
2022-09-10T10:51:49.144Z,97251.02
2022-09-10T10:55:11.170Z,97261.13
2022-09-10T11:01:39.048Z,97268.23
2022-09-10T11:09:40.299Z,97271.14
2022-09-10T11:12:32.030Z,97273.13
2022-09-10T11:15:16.563Z,97276.53
2022-09-10T11:18:12.964Z,97281.27
2022-09-10T11:21:42.437Z,97278.11
2022-09-10T11:24:24.248Z,97287.75
2022-09-10T11:27:10.464Z,97286.01
2022-09-10T11:30:04.376Z,97285.88
2022-09-10T11:32:40.720Z,97276.80
2022-09-10T11:35:57.615Z,97272.94
2022-09-10T11:39:32.783Z,97275.17
2022-09-10T11:42:17.645Z,97286.05
2022-09-10T11:45:32.448Z,97286.80
2022-09-10T11:48:36.114Z,97292.19
2022-09-10T11:51:23.546Z,97301.66
2022-09-10T11:53:54.836Z,97310.81
2022-09-10T11:56:59.174Z,97310.61
2022-09-10T11:59:50.288Z,97305.85
2022-09-10T12:04:02.542Z,97301.15
2022-09-10T12:10:35.427Z,97296.40
2022-09-10T12:17:48.448Z,97299.08
2022-09-10T12:29:02.556Z,97314.41
2022-09-10T12:32:09.796Z,97305.44
2022-09-10T12:34:58.230Z,97316.90
2022-09-10T12:37:45.624Z,97338.39
2022-09-10T12:40:29.959Z,97335.80
2022-09-10T12:43:39.683Z,97334.23
2022-09-10T12:46:09.361Z,97331.77
2022-09-10T12:48:46.955Z,97337.75
2022-09-10T12:51:16.486Z,97334.92
2022-09-10T12:54:31.283Z,97335.38
2022-09-10T12:57:19.907Z,97331.76
2022-09-10T12:59:58.429Z,97331.50
2022-09-10T13:02:30.539Z,97327.85
2022-09-10T13:05:22.123Z,97330.06
2022-09-10T13:08:18.061Z,97324.13
2022-09-10T13:11:05.165Z,97321.62
2022-09-10T13:13:44.714Z,97331.53
2022-09-10T13:16:34.545Z,97335.67
2022-09-10T13:19:13.379Z,97333.50
2022-09-10T13:21:40.229Z,97334.10
2022-09-10T13:24:36.398Z,97338.05
2022-09-10T13:27:12.381Z,97336.37
2022-09-10T13:30:11.229Z,97332.93
2022-09-10T13:32:46.373Z,97330.12
2022-09-10T13:35:16.775Z,97333.01
2022-09-10T13:38:01.797Z,97346.30
2022-09-10T13:40:45.020Z,97359.18
2022-09-10T13:43:30.633Z,97365.73
2022-09-10T13:46:02.176Z,97368.34
2022-09-10T13:48:43.140Z,97366.43
2022-09-10T13:51:32.802Z,97369.95
2022-09-10T13:54:25.056Z,97367.59
2022-09-10T13:56:54.164Z,97367.98
2022-09-10T13:59:30.579Z,97365.13
2022-09-10T14:01:59.043Z,97356.70
2022-09-10T14:04:31.518Z,97355.39
2022-09-10T14:07:22.585Z,97341.46
2022-09-10T14:09:56.302Z,97328.23
2022-09-10T14:12:27.617Z,97319.74
2022-09-10T14:14:59.784Z,97322.04
2022-09-10T14:17:50.314Z,97322.93
2022-09-10T14:20:17.519Z,97316.48
2022-09-10T14:22:44.783Z,97313.36
2022-09-10T14:25:30.879Z,97312.88
2022-09-10T14:28:16.389Z,97312.57
2022-09-10T14:30:44.770Z,97313.43
2022-09-10T14:33:29.307Z,97309.31
2022-09-10T14:35:58.455Z,97312.89
2022-09-10T14:38:35.757Z,97317.94
2022-09-10T14:41:18.083Z,97318.38
2022-09-10T14:43:45.319Z,97322.73
2022-09-10T14:46:34.388Z,97321.59
2022-09-10T14:49:10.579Z,97319.50
2022-09-10T14:51:37.295Z,97322.91
2022-09-10T14:54:04.246Z,97324.25
2022-09-10T14:56:40.599Z,97323.53
2022-09-10T14:59:21.874Z,97320.96
2022-09-10T15:01:49.046Z,97311.61
2022-09-10T15:04:18.727Z,97319.98
2022-09-10T15:06:45.652Z,97319.95
2022-09-10T15:09:14.305Z,97322.34
2022-09-10T15:11:48.799Z,97329.86
2022-09-10T15:14:17.789Z,97335.86
2022-09-10T15:16:44.741Z,97327.44
2022-09-10T15:19:11.449Z,97331.19
2022-09-10T15:21:39.665Z,97330.70
2022-09-10T15:24:07.395Z,97327.17
2022-09-10T15:26:34.250Z,97331.06
2022-09-10T15:29:01.292Z,97328.95
2022-09-10T15:31:32.487Z,97329.40
2022-09-10T15:33:59.686Z,97331.23
2022-09-10T15:36:27.859Z,97335.54
2022-09-10T15:38:55.367Z,97337.69
2022-09-10T15:41:22.874Z,97341.23
2022-09-10T15:43:50.449Z,97343.94
2022-09-10T15:46:18.008Z,97340.88
2022-09-10T15:48:46.898Z,97339.30
2022-09-10T15:51:16.631Z,97341.17
2022-09-10T15:53:43.651Z,97340.45
2022-09-10T15:56:11.493Z,97345.98
2022-09-10T15:58:39.167Z,97340.79
2022-09-10T16:01:11.541Z,97346.74
2022-09-10T16:03:46.217Z,97349.42
2022-09-10T16:06:15.082Z,97355.11
2022-09-10T16:08:41.963Z,97358.14
2022-09-10T16:11:13.120Z,97352.31
2022-09-10T16:13:40.948Z,97352.90
2022-09-10T16:16:11.537Z,97353.45
2022-09-10T16:18:38.545Z,97355.04
2022-09-10T16:21:12.948Z,97364.23
2022-09-10T16:23:41.742Z,97366.16
2022-09-10T16:26:15.302Z,97360.29
2022-09-10T16:28:57.273Z,97357.74
2022-09-10T16:31:28.175Z,97352.67
2022-09-10T16:33:58.130Z,97354.49
2022-09-10T16:36:26.693Z,97347.43
2022-09-10T16:38:55.777Z,97347.98
2022-09-10T16:41:24.310Z,97348.73
2022-09-10T16:43:52.123Z,97354.60
2022-09-10T16:50:35.036Z,97345.51
2022-09-10T16:53:02.141Z,97354.10
2022-09-10T16:55:29.614Z,97359.27
2022-09-10T16:57:57.135Z,97368.42
2022-09-10T17:00:27.684Z,97377.02
2022-09-10T17:02:58.639Z,97382.66
2022-09-10T17:05:26.068Z,97383.73
2022-09-10T17:07:52.989Z,97389.04
2022-09-10T17:10:20.135Z,97395.95
2022-09-10T17:12:46.863Z,97408.78
2022-09-10T17:15:14.859Z,97419.14
2022-09-10T17:17:41.669Z,97422.62
2022-09-10T17:20:09.022Z,97425.60
2022-09-10T17:22:35.893Z,97427.77
2022-09-10T17:25:02.865Z,97433.34
2022-09-10T17:27:32.635Z,97439.66
2022-09-10T17:29:59.714Z,97434.91
2022-09-10T17:32:26.695Z,97429.33
2022-09-10T17:34:55.896Z,97426.77
2022-09-10T17:37:23.972Z,97421.04
2022-09-10T17:39:54.064Z,97422.80
2022-09-10T17:42:23.328Z,97427.89
2022-09-10T17:44:54.224Z,97425.65
2022-09-10T17:47:29.160Z,97428.90
2022-09-10T17:50:03.949Z,97430.02
2022-09-10T17:52:32.498Z,97432.23
2022-09-10T17:58:32.149Z,97434.87
2022-09-10T18:01:07.352Z,97436.36
2022-09-10T18:03:35.961Z,97441.17
2022-09-10T18:06:10.365Z,97438.70
2022-09-10T18:08:45.592Z,97445.70
2022-09-10T18:11:24.839Z,97448.59
2022-09-10T18:14:01.569Z,97449.40
2022-09-10T18:16:31.780Z,97449.75
2022-09-10T18:19:01.482Z,97445.70
2022-09-10T18:21:34.997Z,97444.88
2022-09-10T18:24:16.687Z,97441.09
2022-09-10T18:26:46.705Z,97443.13
2022-09-10T18:29:21.324Z,97449.48
2022-09-10T18:31:51.714Z,97446.48
2022-09-10T18:34:26.639Z,97443.41
2022-09-10T18:37:01.683Z,97444.98
2022-09-10T18:39:33.447Z,97450.71
2022-09-10T18:42:00.814Z,97449.30
2022-09-10T18:44:33.711Z,97449.23
2022-09-10T18:47:00.919Z,97447.41
2022-09-10T18:49:28.795Z,97447.34
2022-09-10T18:51:58.597Z,97439.91
2022-09-10T18:54:29.652Z,97441.81
2022-09-10T18:56:59.790Z,97439.01
2022-09-10T18:59:29.446Z,97436.70
2022-09-10T19:02:16.343Z,97433.73
2022-09-10T19:05:12.596Z,97432.33
2022-09-10T19:07:40.488Z,97430.86
2022-09-10T19:10:13.755Z,97428.34
2022-09-10T19:12:53.933Z,97431.10
2022-09-10T19:15:33.255Z,97428.52
2022-09-10T19:18:06.555Z,97425.63
2022-09-10T19:20:37.572Z,97422.62
2022-09-10T19:23:20.607Z,97421.38
2022-09-10T19:26:00.486Z,97423.15
2022-09-10T19:28:47.113Z,97421.78
2022-09-10T19:31:22.559Z,97420.05
2022-09-10T19:34:01.333Z,97420.20
2022-09-10T19:36:33.071Z,97418.98
2022-09-10T19:39:13.767Z,97415.37
2022-09-10T19:41:43.216Z,97411.43
2022-09-10T19:44:13.518Z,97404.28
2022-09-10T19:46:41.089Z,97400.30
2022-09-10T19:49:09.844Z,97398.52
2022-09-10T19:51:39.042Z,97393.61
2022-09-10T19:54:06.531Z,97393.16
2022-09-10T19:56:37.491Z,97392.89
2022-09-10T19:59:14.118Z,97389.96
2022-09-10T20:01:43.309Z,97389.96
2022-09-10T20:04:15.644Z,97389.02
2022-09-10T20:06:50.038Z,97395.65
2022-09-10T20:09:18.610Z,97393.13
2022-09-10T20:11:46.920Z,97399.30
2022-09-10T20:14:14.478Z,97400.00
2022-09-10T20:16:44.257Z,97403.89
2022-09-10T20:19:14.308Z,97403.92
2022-09-10T20:21:41.760Z,97407.67
2022-09-10T20:24:10.348Z,97407.23
2022-09-10T20:26:41.369Z,97413.55
2022-09-10T20:29:13.918Z,97416.16
2022-09-10T20:31:45.803Z,97406.97
2022-09-10T20:34:20.348Z,97407.19
2022-09-10T20:36:52.059Z,97406.02
2022-09-10T20:39:26.556Z,97404.99
2022-09-10T20:41:57.466Z,97403.91
2022-09-10T20:44:25.599Z,97407.77
2022-09-10T20:46:53.157Z,97410.64
2022-09-10T20:49:23.756Z,97414.59
2022-09-10T20:51:55.036Z,97415.73
2022-09-10T20:54:22.551Z,97419.30
2022-09-10T20:56:52.266Z,97416.66
2022-09-10T20:59:20.837Z,97414.13
2022-09-10T21:01:51.807Z,97410.52
2022-09-10T21:04:19.391Z,97415.92
2022-09-10T21:06:46.090Z,97418.31
2022-09-10T21:09:13.037Z,97416.61
2022-09-10T21:11:39.952Z,97412.16
2022-09-10T21:14:07.794Z,97414.90
2022-09-10T21:16:40.860Z,97418.08
2022-09-10T21:19:11.531Z,97420.80
2022-09-10T21:21:39.600Z,97421.51
2022-09-10T21:24:17.822Z,97420.56
2022-09-10T21:26:44.747Z,97420.08
2022-09-10T21:29:19.245Z,97417.33
2022-09-10T21:31:46.902Z,97416.66
2022-09-10T21:34:14.224Z,97415.00
2022-09-10T21:36:41.598Z,97412.66
2022-09-10T21:39:13.972Z,97415.71
2022-09-10T21:41:48.647Z,97416.82
2022-09-10T21:44:19.191Z,97415.80
2022-09-10T21:46:48.071Z,97418.89
2022-09-10T21:49:15.368Z,97420.75
2022-09-10T21:51:42.735Z,97421.92
2022-09-10T21:54:19.950Z,97422.97
2022-09-10T21:56:50.303Z,97427.56
2022-09-10T21:59:20.086Z,97429.70
2022-09-10T22:01:48.087Z,97432.06
2022-09-10T22:04:21.514Z,97433.02
2022-09-10T22:06:54.064Z,97433.74
2022-09-10T22:09:21.396Z,97439.16
2022-09-10T22:11:51.437Z,97436.14
2022-09-10T22:14:22.733Z,97444.46
2022-09-10T22:16:50.136Z,97443.02
2022-09-10T22:19:21.457Z,97443.24
2022-09-10T22:21:49.639Z,97444.95
2022-09-10T22:24:19.243Z,97444.77
2022-09-10T22:26:46.823Z,97447.13
2022-09-10T22:29:19.869Z,97451.48
2022-09-10T22:31:47.920Z,97449.66
2022-09-10T22:34:16.820Z,97452.39
2022-09-10T22:36:45.389Z,97450.36
2022-09-10T22:39:23.231Z,97457.70
2022-09-10T22:41:50.854Z,97461.35
2022-09-10T22:44:19.329Z,97465.30
2022-09-10T22:46:46.478Z,97466.48
2022-09-10T22:49:16.550Z,97466.34
2022-09-10T22:51:45.295Z,97467.44
2022-09-10T22:54:12.466Z,97468.67
2022-09-10T22:56:39.442Z,97471.09
2022-09-10T22:59:10.702Z,97471.02
2022-09-10T23:01:38.619Z,97474.59
2022-09-10T23:04:07.152Z,97478.68
2022-09-10T23:06:37.308Z,97481.85
2022-09-10T23:09:11.762Z,97491.11
2022-09-10T23:11:40.152Z,97496.36
2022-09-10T23:14:10.873Z,97495.05
2022-09-10T23:16:43.728Z,97498.13
2022-09-10T23:19:15.808Z,97493.39
2022-09-10T23:21:46.361Z,97492.42
2022-09-10T23:24:16.659Z,97497.85
2022-09-10T23:26:46.938Z,97503.61
2022-09-10T23:29:18.042Z,97500.20
2022-09-10T23:31:46.245Z,97494.86
2022-09-10T23:34:15.688Z,97495.69
2022-09-10T23:36:44.839Z,97503.60
2022-09-10T23:39:22.927Z,97506.49
2022-09-10T23:41:52.296Z,97510.79
2022-09-10T23:44:19.790Z,97511.61
2022-09-10T23:46:46.583Z,97513.45
2022-09-10T23:49:13.661Z,97513.74
2022-09-10T23:51:40.568Z,97512.74
2022-09-10T23:54:08.424Z,97511.90
2022-09-10T23:56:35.051Z,97510.14
2022-09-10T23:59:02.915Z,97510.14
